Time;durP1;ratioP1;P1;durP2;ratioP2;P2;SDS_P1;SDS_P2;PMS_P1;PMS_P2;Temp;Humidity;BMP_temperature;BMP_pressure;BME280_temperature;BME280_humidity;BME280_pressure;Samples;Min_cycle;Max_cycle;Signal;HPM_P1;HPM_P2
2024/03/09 00:00:02;;;;;;;1.62;1.52;;;4.30;99.90;;;;;;4441482;32;20076;-64
2024/03/09 00:02:28;;;;;;;4.47;0.95;;;4.20;99.90;;;;;;4439752;32;20437;-64
2024/03/09 00:04:55;;;;;;;0.98;0.75;;;4.20;99.90;;;;;;4440154;32;20078;-63
2024/03/09 00:07:21;;;;;;;5.90;2.17;;;4.20;99.90;;;;;;4438098;32;20119;-61
2024/03/09 00:09:46;;;;;;;1.50;1.40;;;4.20;99.90;;;;;;4437712;32;20089;-61
2024/03/09 00:12:14;;;;;;;2.60;1.75;;;4.20;99.90;;;;;;4436251;32;20081;-64
2024/03/09 00:14:40;;;;;;;0.70;0.70;;;4.20;99.90;;;;;;4437381;32;20086;-62
2024/03/09 00:17:06;;;;;;;2.72;1.70;;;4.20;99.90;;;;;;4438771;32;20073;-64
2024/03/09 00:19:32;;;;;;;2.65;1.62;;;4.10;99.90;;;;;;4439294;32;20068;-63
2024/03/09 00:21:58;;;;;;;1.48;1.25;;;4.10;99.90;;;;;;4437619;32;20453;-63
2024/03/09 00:24:23;;;;;;;1.20;1.10;;;4.10;99.90;;;;;;4438830;32;20150;-63
2024/03/09 00:26:49;;;;;;;3.75;2.10;;;4.20;99.90;;;;;;4438996;32;20074;-64
2024/03/09 00:29:14;;;;;;;23.23;2.03;;;4.10;99.90;;;;;;4436318;32;20100;-63
2024/03/09 00:31:40;;;;;;;3.42;2.03;;;4.10;99.90;;;;;;4437630;32;20069;-62
2024/03/09 00:34:05;;;;;;;1.27;1.17;;;4.10;99.90;;;;;;4436126;32;20520;-62
2024/03/09 00:36:31;;;;;;;1.02;1.02;;;4.00;99.90;;;;;;4438114;32;20081;-63
2024/03/09 00:38:56;;;;;;;11.57;2.22;;;4.00;99.90;;;;;;4437369;32;21199;-65
2024/03/09 00:41:22;;;;;;;1.08;1.05;;;4.00;99.90;;;;;;4438484;32;20119;-62
2024/03/09 00:43:47;;;;;;;0.82;0.82;;;4.00;99.90;;;;;;4436831;32;20097;-66
2024/03/09 00:46:13;;;;;;;0.70;0.70;;;3.90;99.90;;;;;;4438164;32;20080;-66
2024/03/09 00:48:39;;;;;;;1.60;1.50;;;3.90;99.90;;;;;;4438501;32;20073;-65
2024/03/09 00:51:05;;;;;;;5.90;2.03;;;3.80;99.90;;;;;;4437686;32;20077;-66
2024/03/09 00:53:30;;;;;;;1.45;1.33;;;3.80;99.90;;;;;;4448892;32;20068;-66
2024/03/09 00:55:56;;;;;;;1.33;1.25;;;3.80;99.90;;;;;;4454138;32;20064;-65
2024/03/09 00:58:21;;;;;;;0.85;0.85;;;3.80;99.90;;;;;;4453026;32;20093;-66
2024/03/09 01:00:48;;;;;;;11.15;4.18;;;3.80;99.90;;;;;;4455317;32;20060;-66
2024/03/09 01:03:13;;;;;;;5.10;1.77;;;3.80;99.90;;;;;;4455235;32;20454;-66
2024/03/09 01:05:44;;;;;;;1.60;1.50;;;3.70;99.90;;;;;;4456180;32;20080;-65
2024/03/09 01:08:13;;;;;;;2.35;1.87;;;3.70;99.90;;;;;;4456591;32;20085;-66
2024/03/09 01:10:39;;;;;;;1.42;1.33;;;3.70;99.90;;;;;;4454634;32;20076;-66
2024/03/09 01:13:05;;;;;;;1.73;1.45;;;3.70;99.90;;;;;;4454624;32;20086;-66
2024/03/09 01:15:30;;;;;;;0.68;0.68;;;3.70;99.90;;;;;;4455861;32;20753;-65
2024/03/09 01:17:56;;;;;;;0.47;0.47;;;3.70;99.90;;;;;;4456775;32;20199;-66
2024/03/09 01:20:21;;;;;;;2.92;1.20;;;3.60;99.90;;;;;;4456725;32;20060;-66
2024/03/09 01:22:47;;;;;;;0.93;0.93;;;3.50;99.90;;;;;;4446995;32;20508;-65
2024/03/09 01:25:14;;;;;;;4.32;2.85;;;3.50;99.90;;;;;;4449411;32;20089;-64
2024/03/09 01:27:40;;;;;;;2.75;2.45;;;3.50;99.90;;;;;;4457614;32;20064;-65
2024/03/09 01:30:06;;;;;;;3.53;1.65;;;3.60;99.90;;;;;;4456367;32;20487;-65
2024/03/09 01:32:32;;;;;;;2.35;0.90;;;3.50;99.90;;;;;;4455556;32;20570;-65
2024/03/09 01:34:57;;;;;;;1.48;1.23;;;3.50;99.90;;;;;;4454365;32;20243;-65
2024/03/09 01:37:23;;;;;;;11.77;3.62;;;3.50;99.90;;;;;;4453948;32;20122;-65
2024/03/09 01:39:49;;;;;;;3.17;1.27;;;3.50;99.90;;;;;;4455734;32;20133;-65
2024/03/09 01:42:18;;;;;;;3.55;1.48;;;3.40;99.90;;;;;;4453733;32;20073;-65
2024/03/09 01:44:45;;;;;;;4.50;1.50;;;3.40;99.90;;;;;;4453875;32;20612;-65
2024/03/09 01:47:11;;;;;;;4.22;1.80;;;3.40;99.90;;;;;;4457092;32;20064;-65
2024/03/09 01:49:38;;;;;;;11.10;2.37;;;3.40;99.90;;;;;;4454642;32;20112;-65
2024/03/09 01:52:05;;;;;;;2.00;1.67;;;3.30;99.90;;;;;;4454352;32;20108;-65
2024/03/09 01:54:34;;;;;;;3.03;1.85;;;3.30;99.90;;;;;;4455064;32;20406;-64
2024/03/09 01:57:00;;;;;;;2.65;2.22;;;3.40;99.90;;;;;;4455679;32;20079;-64
2024/03/09 01:59:29;;;;;;;2.10;1.77;;;3.40;99.90;;;;;;4456963;32;20378;-64
2024/03/09 02:01:56;;;;;;;1.42;1.10;;;3.30;99.90;;;;;;4457695;32;20065;-64
2024/03/09 02:04:23;;;;;;;2.58;1.70;;;3.30;99.90;;;;;;4457561;32;20135;-64
2024/03/09 02:06:51;;;;;;;3.35;2.40;;;3.30;99.90;;;;;;4454613;32;20084;-65
2024/03/09 02:09:18;;;;;;;6.55;2.72;;;3.40;99.90;;;;;;4455225;32;20060;-65
2024/03/09 02:11:45;;;;;;;3.33;1.52;;;3.30;99.90;;;;;;4454162;32;20145;-65
2024/03/09 02:14:12;;;;;;;2.25;1.80;;;3.30;99.90;;;;;;4454997;32;20072;-65
2024/03/09 02:16:37;;;;;;;1.40;1.35;;;3.20;99.90;;;;;;4455497;32;20158;-66
2024/03/09 02:19:06;;;;;;;4.00;2.05;;;3.30;99.90;;;;;;4455887;32;20073;-67
2024/03/09 02:21:34;;;;;;;0.93;0.93;;;3.20;99.90;;;;;;4453951;32;20077;-68
2024/03/09 02:24:07;;;;;;;0.85;0.85;;;3.20;99.90;;;;;;4453949;32;20088;-65
2024/03/09 02:26:37;;;;;;;1.65;1.42;;;3.30;99.90;;;;;;4455727;32;20131;-65
2024/03/09 02:29:03;;;;;;;1.15;1.10;;;3.30;99.90;;;;;;4455115;32;20072;-66
2024/03/09 02:31:29;;;;;;;0.73;0.73;;;3.30;99.90;;;;;;4454781;32;20076;-65
2024/03/09 02:33:55;;;;;;;2.45;2.25;;;3.20;99.90;;;;;;4452776;32;20072;-63
2024/03/09 02:36:24;;;;;;;1.00;1.00;;;3.20;99.90;;;;;;4445711;32;20081;-62
2024/03/09 02:38:50;;;;;;;3.87;1.70;;;3.20;99.90;;;;;;4445176;32;21603;-63
2024/03/09 02:41:15;;;;;;;1.55;1.12;;;3.20;99.90;;;;;;4454726;32;20085;-63
2024/03/09 02:43:41;;;;;;;5.25;1.75;;;3.20;99.90;;;;;;4452926;32;20072;-67
2024/03/09 02:46:07;;;;;;;11.57;1.65;;;3.20;99.90;;;;;;4454114;32;20088;-63
2024/03/09 02:48:33;;;;;;;1.05;0.98;;;3.10;99.90;;;;;;4453604;32;20065;-63
2024/03/09 02:50:58;;;;;;;1.42;1.33;;;3.10;99.90;;;;;;4454869;32;20077;-63
2024/03/09 02:53:24;;;;;;;1.92;1.77;;;3.10;99.90;;;;;;4442514;32;20124;-62
2024/03/09 02:55:49;;;;;;;2.75;2.12;;;3.10;99.90;;;;;;4437815;32;20109;-64
2024/03/09 02:58:16;;;;;;;1.10;0.95;;;3.20;99.90;;;;;;4436462;32;20096;-62
2024/03/09 03:00:42;;;;;;;0.95;0.95;;;3.20;99.90;;;;;;4439262;32;20080;-61
2024/03/09 03:04:07;;;;;;;1.50;1.37;;;3.10;99.90;;;;;;4439351;32;20069;-60
2024/03/09 03:05:53;;;;;;;3.40;1.77;;;3.10;99.90;;;;;;4437037;32;20093;-62
2024/03/09 03:08:18;;;;;;;1.52;0.90;;;3.10;99.90;;;;;;4439275;32;20089;-60
2024/03/09 03:10:45;;;;;;;0.77;0.77;;;3.10;99.90;;;;;;4437687;32;20328;-63
2024/03/09 03:13:11;;;;;;;2.90;1.98;;;3.00;99.90;;;;;;4439694;32;20115;-63
2024/03/09 03:15:38;;;;;;;6.22;1.98;;;3.10;99.90;;;;;;4439792;32;20100;-62
2024/03/09 03:18:08;;;;;;;10.10;3.75;;;3.10;99.90;;;;;;4438920;32;20069;-65
2024/03/09 03:20:34;;;;;;;0.90;0.88;;;3.00;99.90;;;;;;4440507;32;20416;-61
2024/03/09 03:23:01;;;;;;;3.72;2.05;;;2.90;99.90;;;;;;4436662;32;20077;-63
2024/03/09 03:25:26;;;;;;;1.98;1.23;;;2.90;99.90;;;;;;4438689;32;20111;-62
2024/03/09 03:27:52;;;;;;;1.85;1.75;;;2.90;99.90;;;;;;4438715;32;20186;-63
2024/03/09 03:30:19;;;;;;;2.08;1.40;;;2.90;99.90;;;;;;4437649;32;20529;-63
2024/03/09 03:32:45;;;;;;;1.75;1.55;;;2.90;99.90;;;;;;4438330;32;20064;-61
2024/03/09 03:35:11;;;;;;;2.67;2.00;;;2.90;99.90;;;;;;4438265;32;20077;-64
2024/03/09 03:37:36;;;;;;;2.92;1.27;;;2.80;99.90;;;;;;4436583;32;20227;-63
2024/03/09 03:40:06;;;;;;;5.37;2.60;;;2.80;99.90;;;;;;4437220;32;20481;-64
2024/03/09 03:42:32;;;;;;;7.68;1.55;;;2.80;99.90;;;;;;4438309;32;20085;-60
2024/03/09 03:44:57;;;;;;;1.75;1.20;;;2.80;99.90;;;;;;4438987;32;20089;-64
2024/03/09 03:47:23;;;;;;;4.30;2.55;;;2.70;99.90;;;;;;4440033;32;20145;-63
2024/03/09 03:49:48;;;;;;;0.75;0.75;;;2.80;99.90;;;;;;4437952;32;20123;-67
2024/03/09 03:52:14;;;;;;;4.47;1.92;;;2.80;99.90;;;;;;4439315;32;20544;-63
2024/03/09 03:54:39;;;;;;;1.15;1.15;;;2.80;99.90;;;;;;4454190;32;20598;-64
2024/03/09 03:57:05;;;;;;;1.48;1.15;;;2.80;99.90;;;;;;4454251;32;20085;-62
2024/03/09 03:59:34;;;;;;;6.03;3.37;;;2.70;99.90;;;;;;4446784;32;20069;-64
2024/03/09 04:01:59;;;;;;;2.90;1.08;;;2.70;99.90;;;;;;4451667;32;20081;-62
2024/03/09 04:04:25;;;;;;;5.45;1.92;;;2.70;99.90;;;;;;4453244;32;20084;-65
2024/03/09 04:06:50;;;;;;;3.00;1.95;;;2.70;99.90;;;;;;4454478;32;20064;-65
2024/03/09 04:09:16;;;;;;;4.22;2.45;;;2.70;99.90;;;;;;4453594;32;20138;-65
2024/03/09 04:11:43;;;;;;;4.20;2.50;;;2.70;99.90;;;;;;4453617;32;20398;-65
2024/03/09 04:14:09;;;;;;;33.40;3.37;;;2.70;99.90;;;;;;4453322;32;20080;-66
2024/03/09 04:16:36;;;;;;;7.10;1.30;;;2.70;99.90;;;;;;4454140;32;20435;-66
2024/03/09 04:19:02;;;;;;;1.27;1.00;;;2.70;99.90;;;;;;4453520;32;20082;-66
2024/03/09 04:21:28;;;;;;;1.70;1.60;;;2.70;99.90;;;;;;4454083;32;20104;-66
2024/03/09 04:23:54;;;;;;;0.88;0.88;;;2.70;99.90;;;;;;4452895;32;20105;-66
2024/03/09 04:26:19;;;;;;;4.32;1.75;;;2.70;99.90;;;;;;4452935;32;20069;-66
2024/03/09 04:28:45;;;;;;;5.25;2.30;;;2.70;99.90;;;;;;4454543;32;20068;-65
2024/03/09 04:31:11;;;;;;;1.17;1.10;;;2.60;99.90;;;;;;4452600;32;20524;-64
2024/03/09 04:33:37;;;;;;;4.05;2.08;;;2.40;99.90;;;;;;4454037;32;21512;-65
2024/03/09 04:36:06;;;;;;;3.42;1.70;;;2.40;99.90;;;;;;4454292;32;20068;-65
2024/03/09 04:38:32;;;;;;;3.15;2.22;;;2.50;99.90;;;;;;4456930;32;20081;-66
2024/03/09 04:40:58;;;;;;;5.62;2.67;;;2.50;99.90;;;;;;4455421;32;20077;-64
2024/03/09 04:43:23;;;;;;;1.30;1.20;;;2.50;99.90;;;;;;4457660;32;20131;-65
2024/03/09 04:45:50;;;;;;;1.75;1.65;;;2.50;99.90;;;;;;4457429;32;20445;-66
2024/03/09 04:48:16;;;;;;;4.45;2.22;;;2.40;99.90;;;;;;4456602;32;20119;-66
2024/03/09 04:50:46;;;;;;;4.60;1.48;;;2.30;99.90;;;;;;4457960;32;21539;-65
2024/03/09 04:53:12;;;;;;;2.43;2.23;;;2.30;99.90;;;;;;4443905;32;20092;-65
2024/03/09 04:55:38;;;;;;;1.70;1.60;;;2.30;99.90;;;;;;4442429;32;20532;-65
2024/03/09 04:58:13;;;;;;;1.85;1.40;;;2.40;99.90;;;;;;4440590;32;20069;-67
2024/03/09 05:00:39;;;;;;;0.80;0.80;;;2.40;99.90;;;;;;4439447;32;20583;-65
2024/03/09 05:03:04;;;;;;;0.70;0.70;;;2.40;99.90;;;;;;4440786;32;20057;-65
2024/03/09 05:05:31;;;;;;;1.98;1.58;;;2.40;99.90;;;;;;4441700;32;20136;-65
2024/03/09 05:08:02;;;;;;;1.40;1.30;;;2.30;99.90;;;;;;4442314;32;20061;-66
2024/03/09 05:10:27;;;;;;;;;;;2.30;99.90;;;;;;4440756;32;20536;-66
2024/03/09 05:12:53;;;;;;;2.20;1.52;;;2.30;99.90;;;;;;4440937;32;19961;-65
2024/03/09 05:15:22;;;;;;;1.08;0.98;;;2.30;99.90;;;;;;4439294;32;20560;-65
2024/03/09 05:17:48;;;;;;;1.25;1.15;;;2.30;99.90;;;;;;4441987;32;20516;-66
2024/03/09 05:20:20;;;;;;;14.15;1.90;;;2.30;99.90;;;;;;4440703;32;20492;-66
2024/03/09 05:22:48;;;;;;;3.50;2.10;;;2.30;99.90;;;;;;4440524;32;20485;-65
2024/03/09 05:25:14;;;;;;;0.62;0.62;;;2.30;99.90;;;;;;4439470;32;20403;-66
2024/03/09 05:27:42;;;;;;;2.42;2.05;;;2.30;99.90;;;;;;4442158;32;20069;-65
2024/03/09 05:30:09;;;;;;;1.80;1.62;;;2.30;99.90;;;;;;4436160;32;20131;-65
2024/03/09 05:32:35;;;;;;;1.67;1.58;;;2.30;99.90;;;;;;4440536;32;20080;-64
2024/03/09 05:35:00;;;;;;;2.47;2.10;;;2.30;99.90;;;;;;4437015;32;20124;-67
2024/03/09 05:37:26;;;;;;;0.98;0.98;;;2.30;99.90;;;;;;4439599;32;20093;-67
2024/03/09 05:39:51;;;;;;;10.05;1.95;;;2.20;99.90;;;;;;4439050;32;20061;-65
2024/03/09 05:42:17;;;;;;;1.60;1.50;;;2.30;99.90;;;;;;4440319;32;20542;-66
2024/03/09 05:44:45;;;;;;;1.58;1.48;;;2.30;99.90;;;;;;4440034;32;20078;-66
2024/03/09 05:47:10;;;;;;;1.83;1.70;;;2.30;99.90;;;;;;4437744;32;20073;-65
2024/03/09 05:49:36;;;;;;;1.33;1.23;;;2.30;99.90;;;;;;4438419;32;20156;-66
2024/03/09 05:52:01;;;;;;;1.58;1.48;;;2.40;99.90;;;;;;4440400;32;21229;-66
2024/03/09 05:54:28;;;;;;;1.30;1.20;;;2.30;99.90;;;;;;4455269;32;20077;-65
2024/03/09 05:56:54;;;;;;;3.92;1.55;;;2.30;99.90;;;;;;4455417;32;20084;-66
2024/03/09 05:59:19;;;;;;;3.15;2.03;;;2.30;99.90;;;;;;4454527;32;20591;-66
2024/03/09 06:01:45;;;;;;;6.35;2.60;;;2.30;99.90;;;;;;4453729;32;20084;-66
2024/03/09 06:04:10;;;;;;;1.40;1.30;;;2.40;99.90;;;;;;4455725;32;20068;-66
2024/03/09 06:06:39;;;;;;;1.62;1.52;;;2.40;99.90;;;;;;4454608;32;20119;-66
2024/03/09 06:09:06;;;;;;;2.72;1.70;;;2.40;99.90;;;;;;4455205;32;20076;-66
2024/03/09 06:11:31;;;;;;;1.62;1.52;;;2.40;99.90;;;;;;4453815;32;20178;-66
2024/03/09 06:13:57;;;;;;;1.90;1.35;;;2.40;99.90;;;;;;4452233;32;20068;-66
2024/03/09 06:16:22;;;;;;;2.15;1.55;;;2.50;99.90;;;;;;4455226;32;20072;-66
2024/03/09 06:18:48;;;;;;;7.60;3.05;;;2.50;99.90;;;;;;4455526;32;20077;-66
2024/03/09 06:21:16;;;;;;;2.70;2.03;;;2.50;99.90;;;;;;4455067;32;20528;-66
2024/03/09 06:23:44;;;;;;;2.20;1.80;;;2.50;99.90;;;;;;4456029;32;20541;-62
2024/03/09 06:26:10;;;;;;;4.93;1.87;;;2.50;99.90;;;;;;4454167;32;20543;-66
2024/03/09 06:28:38;;;;;;;2.60;1.62;;;2.60;99.90;;;;;;4442667;32;20096;-66
2024/03/09 06:31:04;;;;;;;3.03;2.53;;;2.60;99.90;;;;;;4454408;32;20183;-65
2024/03/09 06:33:31;;;;;;;2.05;1.70;;;2.60;99.90;;;;;;4450777;32;20154;-65
2024/03/09 06:35:57;;;;;;;3.00;1.70;;;2.70;99.90;;;;;;4452795;32;20449;-66
2024/03/09 06:38:23;;;;;;;2.40;2.15;;;2.70;99.90;;;;;;4450534;32;20080;-66
2024/03/09 06:40:50;;;;;;;2.00;1.83;;;2.70;99.90;;;;;;4454357;32;20089;-65
2024/03/09 06:43:17;;;;;;;7.82;2.45;;;2.70;99.90;;;;;;4451774;32;20085;-64
2024/03/09 06:45:48;;;;;;;7.62;2.35;;;2.80;99.90;;;;;;4452738;32;20089;-65
2024/03/09 06:48:15;;;;;;;1.12;1.10;;;2.90;99.90;;;;;;4452973;32;20568;-66
2024/03/09 06:50:44;;;;;;;3.47;3.17;;;2.90;99.90;;;;;;4456081;32;20099;-65
2024/03/09 06:53:10;;;;;;;2.15;1.95;;;2.90;99.90;;;;;;4455203;32;20101;-65
2024/03/09 06:55:36;;;;;;;0.93;0.88;;;3.00;99.90;;;;;;4452778;32;20073;-65
2024/03/09 06:58:02;;;;;;;1.83;1.65;;;3.00;99.90;;;;;;4452720;32;21848;-65
2024/03/09 07:00:30;;;;;;;2.12;1.67;;;3.10;99.90;;;;;;4455752;32;20073;-65
2024/03/09 07:02:58;;;;;;;15.10;1.70;;;3.10;99.90;;;;;;4454853;32;20072;-65
2024/03/09 07:05:27;;;;;;;4.95;1.20;;;3.20;99.90;;;;;;4454593;32;20179;-65
2024/03/09 07:07:54;;;;;;;1.80;1.70;;;3.30;99.90;;;;;;4454377;32;20068;-65
2024/03/09 07:10:21;;;;;;;2.12;1.67;;;3.30;99.90;;;;;;4453739;32;20525;-66
2024/03/09 07:12:47;;;;;;;2.35;1.60;;;3.30;99.90;;;;;;4455526;32;20077;-65
2024/03/09 07:15:15;;;;;;;5.80;1.87;;;3.40;99.90;;;;;;4452180;32;20073;-65
2024/03/09 07:17:45;;;;;;;3.33;1.75;;;3.50;99.90;;;;;;4454277;32;20073;-68
2024/03/09 07:20:12;;;;;;;1.08;1.08;;;3.50;99.90;;;;;;4453642;32;20105;-65
2024/03/09 07:22:40;;;;;;;1.85;1.65;;;3.70;99.90;;;;;;4454834;32;20286;-66
2024/03/09 07:25:09;;;;;;;1.48;0.90;;;3.70;99.90;;;;;;4453202;32;20175;-66
2024/03/09 07:27:35;;;;;;;2.20;2.00;;;3.80;99.90;;;;;;4453683;32;20077;-65
2024/03/09 07:30:04;;;;;;;1.33;1.25;;;3.80;99.90;;;;;;4454510;32;20245;-65
2024/03/09 07:32:29;;;;;;;0.95;0.95;;;3.90;99.90;;;;;;4454602;32;20186;-65
2024/03/09 07:34:56;;;;;;;6.10;2.35;;;4.00;99.90;;;;;;4455479;32;20132;-63
2024/03/09 07:37:21;;;;;;;3.17;1.98;;;4.00;99.90;;;;;;4454364;32;20073;-64
2024/03/09 07:39:48;;;;;;;2.08;1.85;;;4.10;99.90;;;;;;4456204;32;20777;-64
2024/03/09 07:42:13;;;;;;;3.15;2.42;;;4.20;99.90;;;;;;4455607;32;20087;-63
2024/03/09 07:44:39;;;;;;;2.08;1.87;;;4.40;99.90;;;;;;4456134;32;20080;-64
2024/03/09 07:47:04;;;;;;;8.13;2.35;;;4.50;99.90;;;;;;4453226;32;20417;-65
2024/03/09 07:49:32;;;;;;;1.23;1.12;;;4.60;99.90;;;;;;4450137;32;20134;-63
2024/03/09 07:52:01;;;;;;;5.47;2.45;;;4.60;99.90;;;;;;4455624;32;20088;-64
2024/03/09 07:54:26;;;;;;;1.90;1.80;;;4.60;99.90;;;;;;4454888;32;20129;-66
2024/03/09 07:56:52;;;;;;;2.37;2.15;;;4.70;99.90;;;;;;4453620;32;20231;-65
2024/03/09 07:59:18;;;;;;;1.45;1.35;;;4.70;99.90;;;;;;4453520;32;20061;-67
2024/03/09 08:04:10;;;;;;;1.50;1.12;;;5.00;99.90;;;;;;4455326;32;20135;-67
2024/03/09 08:06:37;;;;;;;10.65;2.65;;;5.10;99.90;;;;;;4454840;32;20521;-67
2024/03/09 08:09:03;;;;;;;3.42;2.28;;;5.10;99.90;;;;;;4455183;32;20533;-65
2024/03/09 08:11:30;;;;;;;1.33;1.27;;;5.10;99.90;;;;;;4456731;32;21083;-66
2024/03/09 08:13:55;;;;;;;3.87;1.75;;;5.20;99.90;;;;;;4457095;32;20093;-64
2024/03/09 08:16:21;;;;;;;3.75;2.00;;;5.30;99.90;;;;;;4455486;32;20131;-66
2024/03/09 08:18:47;;;;;;;1.52;1.30;;;5.30;99.90;;;;;;4457076;32;20118;-66
2024/03/09 08:21:13;;;;;;;3.75;2.60;;;5.30;99.90;;;;;;4456364;32;20127;-65
2024/03/09 08:23:42;;;;;;;3.97;2.03;;;5.40;99.90;;;;;;4456272;32;20560;-66
2024/03/09 08:26:08;;;;;;;3.03;1.87;;;5.50;99.90;;;;;;4456502;32;20115;-65
2024/03/09 08:28:34;;;;;;;4.12;2.40;;;5.60;99.90;;;;;;4455709;32;20084;-65
2024/03/09 08:30:59;;;;;;;3.80;1.80;;;5.60;99.90;;;;;;4457292;32;20076;-65
2024/03/09 08:33:25;;;;;;;1.55;1.27;;;5.70;99.90;;;;;;4456968;32;20080;-66
2024/03/09 08:35:55;;;;;;;27.30;3.35;;;5.70;99.90;;;;;;4449690;32;20088;-66
2024/03/09 08:38:21;;;;;;;4.25;2.37;;;5.80;99.90;;;;;;4454057;32;20118;-66
2024/03/09 08:40:49;;;;;;;2.45;1.70;;;6.00;99.90;;;;;;4452989;32;20064;-66
2024/03/09 08:43:15;;;;;;;3.10;1.83;;;6.10;99.90;;;;;;4454746;32;20105;-62
2024/03/09 08:45:42;;;;;;;2.55;1.52;;;6.20;99.90;;;;;;4457593;32;20500;-65
2024/03/09 08:48:08;;;;;;;6.20;2.25;;;6.40;99.90;;;;;;4455376;32;20847;-65
2024/03/09 08:50:34;;;;;;;6.35;2.72;;;6.50;99.90;;;;;;4455702;32;20224;-66
2024/03/09 08:53:00;;;;;;;2.60;2.03;;;6.60;99.90;;;;;;4457043;32;20170;-66
2024/03/09 08:55:25;;;;;;;5.05;2.28;;;6.70;99.90;;;;;;4455839;32;20850;-66
2024/03/09 08:57:51;;;;;;;2.92;1.85;;;6.60;99.90;;;;;;4457480;32;20089;-66
2024/03/09 09:00:19;;;;;;;2.20;1.70;;;6.70;99.90;;;;;;4455237;32;20579;-65
2024/03/09 09:02:46;;;;;;;4.18;2.35;;;6.80;99.90;;;;;;4456749;32;20081;-66
2024/03/09 09:05:12;;;;;;;4.80;1.83;;;7.10;99.90;;;;;;4458727;32;20429;-66
2024/03/09 09:07:40;;;;;;;1.87;1.20;;;7.10;99.90;;;;;;4454967;32;20161;-66
2024/03/09 09:10:11;;;;;;;13.77;2.83;;;7.30;99.90;;;;;;4454631;32;20139;-65
2024/03/09 09:12:38;;;;;;;4.87;1.65;;;7.40;99.90;;;;;;4448620;32;20536;-66
2024/03/09 09:15:04;;;;;;;6.35;2.58;;;7.40;99.90;;;;;;4443922;32;20068;-66
2024/03/09 09:17:29;;;;;;;5.07;1.85;;;7.40;99.90;;;;;;4453466;32;20123;-66
2024/03/09 09:19:55;;;;;;;6.37;2.28;;;7.50;99.90;;;;;;4454435;32;20496;-66
2024/03/09 09:22:22;;;;;;;2.15;1.73;;;7.80;99.90;;;;;;4455687;32;20076;-66
2024/03/09 09:24:48;;;;;;;4.50;1.73;;;8.00;99.90;;;;;;4457320;32;20076;-66
2024/03/09 09:27:13;;;;;;;2.10;1.55;;;8.10;99.90;;;;;;4455978;32;20126;-66
2024/03/09 09:29:39;;;;;;;2.20;1.60;;;8.30;99.90;;;;;;4455560;32;20081;-66
2024/03/09 09:32:05;;;;;;;1.55;1.45;;;8.30;99.90;;;;;;4456334;32;20084;-67
2024/03/09 09:34:31;;;;;;;4.03;1.58;;;8.50;99.90;;;;;;4455538;32;20072;-67
2024/03/09 09:36:58;;;;;;;4.10;1.48;;;8.50;99.90;;;;;;4455094;32;20077;-66
2024/03/09 09:39:25;;;;;;;4.12;2.15;;;8.40;99.90;;;;;;4452500;32;20972;-67
2024/03/09 09:41:56;;;;;;;3.55;1.33;;;8.50;99.90;;;;;;4451932;32;20114;-67
2024/03/09 09:44:22;;;;;;;4.15;1.83;;;8.80;99.90;;;;;;4456491;32;20124;-66
2024/03/09 09:46:47;;;;;;;6.18;1.83;;;9.10;99.90;;;;;;4455694;32;20064;-67
2024/03/09 09:49:14;;;;;;;4.25;2.15;;;9.30;99.90;;;;;;4454953;32;20601;-66
2024/03/09 09:51:41;;;;;;;1.73;1.48;;;9.30;99.90;;;;;;4454869;32;20068;-66
2024/03/09 09:54:08;;;;;;;5.28;1.98;;;9.40;99.90;;;;;;4454925;32;20119;-65
2024/03/09 09:56:34;;;;;;;2.20;1.33;;;9.50;99.90;;;;;;4454663;32;20532;-65
2024/03/09 09:59:01;;;;;;;2.10;1.75;;;9.60;99.90;;;;;;4449924;32;20111;-67
2024/03/09 10:01:26;;;;;;;5.47;2.00;;;9.80;99.90;;;;;;4456577;32;20449;-65
2024/03/09 10:03:52;;;;;;;0.75;0.70;;;10.10;99.90;;;;;;4457151;32;20080;-66
2024/03/09 10:06:20;;;;;;;1.33;1.23;;;10.20;99.90;;;;;;4456341;32;20072;-65
2024/03/09 10:08:48;;;;;;;2.45;1.83;;;10.40;99.90;;;;;;4454859;32;20080;-65
2024/03/09 10:11:15;;;;;;;6.28;2.37;;;10.50;99.90;;;;;;4447226;32;20133;-66
2024/03/09 10:13:41;;;;;;;3.58;1.00;;;10.70;99.90;;;;;;4456868;32;20499;-66
2024/03/09 10:16:07;;;;;;;6.65;1.85;;;10.80;99.90;;;;;;4455485;32;20540;-64
2024/03/09 10:18:32;;;;;;;3.90;2.58;;;10.80;99.90;;;;;;4454839;32;20080;-66
2024/03/09 10:20:58;;;;;;;2.75;1.50;;;10.80;99.90;;;;;;4454495;32;20084;-65
2024/03/09 10:23:23;;;;;;;2.47;1.55;;;11.10;99.90;;;;;;4456654;32;20096;-65
2024/03/09 10:25:49;;;;;;;4.20;1.98;;;10.70;99.90;;;;;;4453998;32;20084;-64
2024/03/09 10:28:15;;;;;;;4.80;2.28;;;10.70;99.90;;;;;;4455618;32;20110;-65
2024/03/09 10:30:40;;;;;;;3.78;1.05;;;11.00;99.90;;;;;;4451833;32;20475;-66
2024/03/09 10:33:09;;;;;;;16.40;1.67;;;11.20;99.90;;;;;;4449527;32;20072;-66
2024/03/09 10:35:40;;;;;;;5.30;2.78;;;11.30;99.90;;;;;;4448395;32;20088;-66
2024/03/09 10:38:08;;;;;;;1.60;1.42;;;11.40;99.90;;;;;;4448810;32;20096;-65
2024/03/09 10:40:34;;;;;;;4.35;1.60;;;11.30;99.90;;;;;;4444675;32;20092;-65
2024/03/09 10:43:02;;;;;;;8.85;2.47;;;11.10;99.90;;;;;;4452505;32;20146;-65
2024/03/09 10:45:31;;;;;;;4.03;1.73;;;11.30;99.90;;;;;;4454957;32;20151;-65
2024/03/09 10:47:57;;;;;;;1.95;1.45;;;11.30;99.90;;;;;;4447233;32;20076;-65
2024/03/09 10:50:27;;;;;;;1.27;1.17;;;11.40;99.90;;;;;;4445732;32;20560;-66
2024/03/09 10:53:11;;;;;;;1.52;1.00;;;11.40;99.90;;;;;;4443559;32;20085;-65
2024/03/09 10:56:17;;;;;;;12.63;2.25;;;11.30;99.90;;;;;;4440096;32;20638;-65
2024/03/09 10:58:45;;;;;;;2.53;1.30;;;11.50;99.90;;;;;;4430346;32;20102;-65
2024/03/09 11:01:11;;;;;;;1.37;1.25;;;11.90;99.90;;;;;;4442099;32;20068;-65
2024/03/09 11:03:38;;;;;;;9.52;1.45;;;11.80;99.90;;;;;;4438473;32;20085;-65
2024/03/09 11:06:03;;;;;;;5.95;2.20;;;11.90;99.90;;;;;;4438772;32;20144;-63
2024/03/09 11:08:32;;;;;;;5.68;2.00;;;12.10;99.90;;;;;;4436595;32;20243;-63
2024/03/09 11:10:58;;;;;;;25.12;2.37;;;12.40;99.90;;;;;;4438687;32;20591;-63
2024/03/09 11:13:24;;;;;;;1.42;1.33;;;12.60;99.90;;;;;;4434964;32;20064;-66
2024/03/09 11:15:52;;;;;;;1.92;1.40;;;12.50;99.90;;;;;;4437432;32;20057;-65
2024/03/09 11:18:19;;;;;;;2.47;1.35;;;12.60;99.90;;;;;;4437725;32;20061;-64
2024/03/09 11:20:52;;;;;;;2.92;1.45;;;12.80;99.90;;;;;;4438721;32;20147;-64
2024/03/09 11:23:26;;;;;;;2.70;1.33;;;12.60;99.90;;;;;;4437654;32;20076;-64
2024/03/09 11:25:54;;;;;;;5.55;2.30;;;12.30;99.90;;;;;;4440156;32;20476;-64
2024/03/09 11:28:24;;;;;;;15.15;1.02;;;12.20;99.90;;;;;;4439963;32;20533;-64
2024/03/09 11:31:10;;;;;;;1.48;0.98;;;11.80;99.90;;;;;;4440091;32;20098;-63
2024/03/09 11:33:42;;;;;;;2.15;1.40;;;11.80;99.90;;;;;;4438764;32;20132;-63
2024/03/09 11:36:50;;;;;;;1.02;0.90;;;11.60;99.90;;;;;;4439883;32;20064;-64
2024/03/09 11:39:17;;;;;;;0.80;0.80;;;11.60;99.90;;;;;;4428969;32;20077;-64
2024/03/09 11:41:45;;;;;;;1.83;1.73;;;11.60;99.90;;;;;;4440162;32;20713;-64
2024/03/09 11:44:17;;;;;;;2.42;1.50;;;11.60;99.90;;;;;;4438501;32;20076;-63
2024/03/09 11:46:43;;;;;;;1.70;1.12;;;11.40;99.90;;;;;;4439313;32;20508;-64
2024/03/09 11:49:16;;;;;;;11.82;1.73;;;11.30;99.90;;;;;;4440243;32;20076;-63
2024/03/09 11:51:41;;;;;;;1.87;1.10;;;11.10;99.90;;;;;;4441960;32;20366;-65
2024/03/09 11:54:09;;;;;;;3.72;1.62;;;11.10;99.90;;;;;;4450516;32;89571;-65
2024/03/09 11:56:36;;;;;;;2.33;1.45;;;10.90;99.90;;;;;;4455529;32;20225;-65
2024/03/09 11:59:06;;;;;;;2.37;1.87;;;10.80;99.90;;;;;;4456025;32;20582;-64
2024/03/09 12:01:34;;;;;;;4.57;1.13;;;10.80;99.90;;;;;;4454951;32;20132;-64
2024/03/09 12:04:01;;;;;;;1.40;1.30;;;10.80;99.90;;;;;;4455257;32;20161;-65
2024/03/09 12:06:27;;;;;;;1.10;0.75;;;10.70;99.90;;;;;;4455714;32;20093;-63
2024/03/09 12:08:53;;;;;;;3.03;1.23;;;10.60;99.90;;;;;;4453922;32;20060;-62
2024/03/09 12:11:21;;;;;;;1.40;0.70;;;10.40;99.90;;;;;;4453819;32;20127;-64
2024/03/09 12:13:47;;;;;;;3.95;1.50;;;10.50;99.90;;;;;;4454245;32;20068;-62
2024/03/09 12:16:14;;;;;;;2.50;1.30;;;10.50;99.90;;;;;;4454771;32;20076;-61
2024/03/09 12:18:45;;;;;;;2.62;1.33;;;10.50;99.90;;;;;;4453835;32;20478;-63
2024/03/09 12:21:13;;;;;;;2.28;1.70;;;10.50;99.90;;;;;;4454033;32;20576;-63
2024/03/09 12:23:39;;;;;;;7.05;1.77;;;10.40;99.90;;;;;;4453995;32;20167;-63
2024/03/09 12:26:05;;;;;;;1.02;0.90;;;10.40;99.90;;;;;;4454773;32;20870;-65
2024/03/09 12:28:32;;;;;;;2.00;1.00;;;10.40;99.90;;;;;;4453188;32;20127;-65
2024/03/09 12:30:59;;;;;;;1.95;1.50;;;10.40;99.90;;;;;;4454404;32;20085;-64
2024/03/09 12:33:27;;;;;;;5.57;1.02;;;10.40;99.90;;;;;;4453879;32;20080;-64
2024/03/09 12:35:57;;;;;;;15.30;2.03;;;10.40;99.90;;;;;;4454184;32;20072;-65
2024/03/09 12:38:23;;;;;;;0.93;0.75;;;10.30;99.90;;;;;;4452454;32;20516;-65
2024/03/09 12:40:48;;;;;;;2.72;1.67;;;10.30;99.90;;;;;;4441420;32;20065;-65
2024/03/09 12:43:15;;;;;;;5.90;2.22;;;10.20;99.90;;;;;;4449779;32;20131;-64
2024/03/09 12:45:42;;;;;;;0.82;0.70;;;10.20;99.90;;;;;;4452306;32;20076;-68
2024/03/09 12:48:08;;;;;;;1.27;1.02;;;10.20;99.90;;;;;;4447707;32;20084;-66
2024/03/09 12:50:35;;;;;;;2.37;1.48;;;10.20;99.90;;;;;;4444199;32;20073;-65
2024/03/09 12:53:01;;;;;;;3.83;1.55;;;10.20;99.90;;;;;;4453983;32;20414;-67
2024/03/09 12:55:28;;;;;;;9.23;1.73;;;10.10;99.90;;;;;;4454547;32;20084;-66